Time;durP1;ratioP1;P1;durP2;ratioP2;P2;SDS_P1;SDS_P2;PMS_P1;PMS_P2;Temp;Humidity;BMP_temperature;BMP_pressure;BME280_temperature;BME280_humidity;BME280_pressure;Samples;Min_cycle;Max_cycle;Signal;HPM_P1;HPM_P2
2021/04/24 00:01:22;;;;;;;16.13;12.35;;;;;;;;;;5075051;28;20032;-77
2021/04/24 00:03:48;;;;;;;13.57;11.57;;;;;;;;;;5075074;28;20055;-76
2021/04/24 00:06:15;;;;;;;12.35;10.73;;;;;;;;;;5074940;28;20082;-77
2021/04/24 00:08:41;;;;;;;13.48;10.55;;;;;;;;;;5075023;28;20055;-77
2021/04/24 00:11:07;;;;;;;13.93;10.10;;;;;;;;;;5074984;28;20032;-77
2021/04/24 00:13:33;;;;;;;13.82;11.50;;;;;;;;;;5074735;28;20037;-78
2021/04/24 00:15:59;;;;;;;13.60;9.80;;;;;;;;;;5074845;28;20029;-78
2021/04/24 00:18:26;;;;;;;11.43;10.13;;;;;;;;;;5075308;28;20024;-76
2021/04/24 00:20:52;;;;;;;17.77;11.48;;;;;;;;;;5074665;28;20031;-77
2021/04/24 00:23:18;;;;;;;16.00;11.30;;;;;;;;;;5074601;28;20487;-77
2021/04/24 00:25:44;;;;;;;13.75;10.43;;;;;;;;;;5074691;28;20025;-77
2021/04/24 00:28:11;;;;;;;15.10;10.43;;;;;;;;;;5074603;28;20547;-76
2021/04/24 00:30:37;;;;;;;13.00;9.85;;;;;;;;;;5074260;28;20040;-76
2021/04/24 00:33:04;;;;;;;11.10;9.90;;;;;;;;;;5074439;28;20025;-79
2021/04/24 00:35:31;;;;;;;14.13;11.38;;;;;;;;;;5074366;28;20032;-77
2021/04/24 00:37:57;;;;;;;12.70;10.27;;;;;;;;;;5074283;28;20052;-76
2021/04/24 00:40:23;;;;;;;15.63;9.93;;;;;;;;;;5074380;28;20020;-78
2021/04/24 00:42:49;;;;;;;13.07;10.27;;;;;;;;;;5074334;28;20106;-76
2021/04/24 00:45:16;;;;;;;14.48;10.15;;;;;;;;;;5074092;28;20032;-77
2021/04/24 00:47:43;;;;;;;15.52;9.90;;;;;;;;;;5074079;28;20104;-77
2021/04/24 00:50:10;;;;;;;13.55;10.60;;;;;;;;;;5074193;28;20128;-79
2021/04/24 00:52:36;;;;;;;14.27;10.45;;;;;;;;;;5074012;28;20107;-79
2021/04/24 00:55:04;;;;;;;14.63;11.27;;;;;;;;;;5073861;28;20032;-76
2021/04/24 00:57:31;;;;;;;12.90;9.90;;;;;;;;;;5074005;28;20085;-76
2021/04/24 00:59:57;;;;;;;14.25;9.45;;;;;;;;;;5073880;28;20039;-78
2021/04/24 01:02:23;;;;;;;12.43;9.45;;;;;;;;;;5073925;28;20035;-77
2021/04/24 01:04:49;;;;;;;17.15;9.73;;;;;;;;;;5073796;28;20025;-77
2021/04/24 01:07:15;;;;;;;13.20;9.27;;;;;;;;;;5073837;28;20027;-77
2021/04/24 01:09:42;;;;;;;12.55;9.50;;;;;;;;;;5073827;28;20476;-76
2021/04/24 01:12:08;;;;;;;14.25;9.43;;;;;;;;;;5073664;28;20107;-76
2021/04/24 01:14:34;;;;;;;11.40;8.52;;;;;;;;;;5073601;28;20032;-77
2021/04/24 01:17:01;;;;;;;15.52;9.52;;;;;;;;;;5073768;28;20036;-73
2021/04/24 01:19:27;;;;;;;12.10;9.13;;;;;;;;;;5073797;28;20475;-77
2021/04/24 01:21:53;;;;;;;12.88;9.60;;;;;;;;;;5073623;28;20523;-78
2021/04/24 01:24:20;;;;;;;14.43;9.43;;;;;;;;;;5073563;28;20025;-76
2021/04/24 01:26:46;;;;;;;15.73;9.32;;;;;;;;;;5073599;28;20032;-76
2021/04/24 01:29:12;;;;;;;13.52;9.70;;;;;;;;;;5073569;28;20021;-78
2021/04/24 01:31:39;;;;;;;12.02;9.30;;;;;;;;;;5073281;28;20052;-77
2021/04/24 01:34:06;;;;;;;12.13;8.80;;;;;;;;;;5073434;28;20064;-78
2021/04/24 01:36:33;;;;;;;15.52;8.75;;;;;;;;;;5073591;28;20028;-77
2021/04/24 01:38:59;;;;;;;11.77;8.52;;;;;;;;;;5073421;28;20029;-76
2021/04/24 01:41:25;;;;;;;9.85;8.20;;;;;;;;;;5073372;28;20036;-77
2021/04/24 01:43:52;;;;;;;14.98;9.30;;;;;;;;;;5073434;28;20040;-76
2021/04/24 01:46:18;;;;;;;14.80;8.75;;;;;;;;;;5073380;28;20491;-76
2021/04/24 01:48:45;;;;;;;14.77;8.88;;;;;;;;;;5073320;28;20029;-77
2021/04/24 01:51:11;;;;;;;12.27;7.63;;;;;;;;;;5073119;28;20029;-76
2021/04/24 01:53:38;;;;;;;12.27;7.97;;;;;;;;;;5073236;28;20064;-76
2021/04/24 01:56:05;;;;;;;10.13;8.10;;;;;;;;;;5073410;28;20376;-77
2021/04/24 01:58:31;;;;;;;16.15;9.18;;;;;;;;;;5073462;28;20107;-77
2021/04/24 02:00:58;;;;;;;11.80;7.45;;;;;;;;;;5073277;28;20078;-76
2021/04/24 02:03:25;;;;;;;12.88;7.20;;;;;;;;;;5073229;28;20020;-77
2021/04/24 02:05:51;;;;;;;12.10;8.32;;;;;;;;;;5073534;28;20029;-77
2021/04/24 02:08:21;;;;;;;12.15;7.65;;;;;;;;;;5073100;28;20028;-77
2021/04/24 02:10:49;;;;;;;13.80;8.10;;;;;;;;;;5073217;28;20033;-78
2021/04/24 02:13:20;;;;;;;12.65;7.25;;;;;;;;;;5072868;28;20033;-78
2021/04/24 02:15:47;;;;;;;11.23;7.65;;;;;;;;;;5074026;28;20475;-77
2021/04/24 02:18:13;;;;;;;14.30;8.00;;;;;;;;;;5077037;28;20031;-77
2021/04/24 02:20:40;;;;;;;11.95;7.88;;;;;;;;;;5076904;28;20053;-78
2021/04/24 02:23:07;;;;;;;10.63;6.97;;;;;;;;;;5077006;28;20036;-77
2021/04/24 02:25:33;;;;;;;9.82;7.25;;;;;;;;;;5076907;28;20035;-78
2021/04/24 02:27:59;;;;;;;12.02;6.88;;;;;;;;;;5076893;28;20035;-77
2021/04/24 02:30:25;;;;;;;12.48;7.03;;;;;;;;;;5076679;28;20036;-77
2021/04/24 02:32:52;;;;;;;11.30;7.07;;;;;;;;;;5076771;28;20028;-77
2021/04/24 02:35:20;;;;;;;13.50;7.35;;;;;;;;;;5076497;28;20086;-77
2021/04/24 02:37:47;;;;;;;12.15;6.68;;;;;;;;;;5076793;28;20020;-76
2021/04/24 02:40:22;;;;;;;12.00;6.75;;;;;;;;;;5076883;28;20024;-77
2021/04/24 02:42:48;;;;;;;9.75;7.00;;;;;;;;;;5076466;28;20017;-76
2021/04/24 02:45:16;;;;;;;13.55;6.82;;;;;;;;;;5076392;28;20066;-77
2021/04/24 02:47:42;;;;;;;11.13;6.28;;;;;;;;;;5076452;28;20020;-79
2021/04/24 02:50:10;;;;;;;10.95;6.82;;;;;;;;;;5076293;28;20016;-77
2021/04/24 02:52:36;;;;;;;11.50;7.20;;;;;;;;;;5076424;28;20209;-77
2021/04/24 02:55:05;;;;;;;9.40;6.10;;;;;;;;;;5076285;28;20492;-78
2021/04/24 02:57:31;;;;;;;11.52;6.57;;;;;;;;;;5076383;28;20024;-79
2021/04/24 02:59:57;;;;;;;10.13;7.00;;;;;;;;;;5076329;28;20028;-77
2021/04/24 03:02:23;;;;;;;12.73;6.53;;;;;;;;;;5076220;28;20029;-79
2021/04/24 03:04:49;;;;;;;10.35;6.80;;;;;;;;;;5076260;28;20024;-79
2021/04/24 03:07:15;;;;;;;11.00;6.28;;;;;;;;;;5076030;28;20029;-77
2021/04/24 03:09:41;;;;;;;10.68;6.53;;;;;;;;;;5076093;28;20028;-77
2021/04/24 03:12:08;;;;;;;11.07;6.28;;;;;;;;;;5076067;28;20028;-77
2021/04/24 03:14:35;;;;;;;11.65;6.85;;;;;;;;;;5076027;28;20369;-78
2021/04/24 03:17:01;;;;;;;10.20;6.35;;;;;;;;;;5075918;28;20024;-77
2021/04/24 03:19:27;;;;;;;13.77;6.95;;;;;;;;;;5075978;28;20032;-77
2021/04/24 03:21:53;;;;;;;12.45;6.93;;;;;;;;;;5075935;28;20064;-78
2021/04/24 03:24:19;;;;;;;12.68;7.13;;;;;;;;;;5075806;28;20064;-76
2021/04/24 03:26:45;;;;;;;11.93;7.13;;;;;;;;;;5074941;28;20024;-76
2021/04/24 03:29:12;;;;;;;10.60;6.57;;;;;;;;;;5075055;28;20078;-77
2021/04/24 03:31:38;;;;;;;9.40;6.85;;;;;;;;;;5075343;28;20561;-78
2021/04/24 03:34:04;;;;;;;10.02;6.88;;;;;;;;;;5075598;28;20037;-77
2021/04/24 03:36:30;;;;;;;13.40;6.57;;;;;;;;;;5057710;28;20492;-77
2021/04/24 03:38:57;;;;;;;10.52;6.15;;;;;;;;;;5075481;28;20069;-77
2021/04/24 03:41:23;;;;;;;12.77;7.13;;;;;;;;;;5075708;28;20029;-77
2021/04/24 03:43:49;;;;;;;11.25;6.72;;;;;;;;;;5075544;28;20035;-77
2021/04/24 03:46:15;;;;;;;8.55;5.97;;;;;;;;;;5075271;28;20050;-76
2021/04/24 03:48:41;;;;;;;10.63;6.43;;;;;;;;;;5075365;28;20050;-77
2021/04/24 03:51:07;;;;;;;11.73;6.38;;;;;;;;;;5057313;28;20108;-78
2021/04/24 03:53:33;;;;;;;10.35;7.38;;;;;;;;;;5075179;28;20032;-76
2021/04/24 03:56:00;;;;;;;13.13;6.68;;;;;;;;;;5075143;28;20025;-77
2021/04/24 03:58:27;;;;;;;13.73;6.85;;;;;;;;;;5075208;28;20035;-76
2021/04/24 04:00:53;;;;;;;11.63;6.43;;;;;;;;;;5075126;28;20028;-77
2021/04/24 04:03:20;;;;;;;13.50;7.30;;;;;;;;;;5075075;28;20020;-77
2021/04/24 04:05:48;;;;;;;10.80;6.95;;;;;;;;;;5057016;28;20169;-79
2021/04/24 04:08:15;;;;;;;11.13;7.60;;;;;;;;;;5075040;28;20024;-77
2021/04/24 04:10:42;;;;;;;12.40;7.05;;;;;;;;;;5074870;28;20028;-78
2021/04/24 04:13:09;;;;;;;12.55;7.10;;;;;;;;;;5074609;28;20025;-79
2021/04/24 04:15:35;;;;;;;11.20;6.47;;;;;;;;;;5056987;28;20050;-77
2021/04/24 04:18:07;;;;;;;12.57;6.22;;;;;;;;;;5074859;28;20074;-80
2021/04/24 04:20:33;;;;;;;13.60;7.25;;;;;;;;;;5074800;28;20039;-79
2021/04/24 04:23:00;;;;;;;12.07;7.03;;;;;;;;;;5074652;28;20147;-78
2021/04/24 04:25:26;;;;;;;11.38;6.72;;;;;;;;;;5074723;28;20034;-81
2021/04/24 04:27:52;;;;;;;9.05;5.85;;;;;;;;;;5074620;28;20033;-78
2021/04/24 04:30:19;;;;;;;13.80;7.07;;;;;;;;;;5074330;28;20055;-77
2021/04/24 04:32:46;;;;;;;13.95;6.30;;;;;;;;;;5074535;28;20494;-77
2021/04/24 04:35:13;;;;;;;13.65;6.68;;;;;;;;;;5074389;28;20032;-76
2021/04/24 04:37:39;;;;;;;8.55;6.20;;;;;;;;;;5074501;28;20017;-78
2021/04/24 04:40:07;;;;;;;10.55;5.65;;;;;;;;;;5074055;28;20091;-77
2021/04/24 04:42:33;;;;;;;10.30;6.32;;;;;;;;;;5074211;28;20053;-76
2021/04/24 04:44:59;;;;;;;12.10;6.25;;;;;;;;;;5074255;28;20020;-77
2021/04/24 04:47:26;;;;;;;11.52;6.13;;;;;;;;;;5074201;28;20383;-77
2021/04/24 04:49:52;;;;;;;12.45;7.03;;;;;;;;;;5074132;28;20031;-78
2021/04/24 04:52:18;;;;;;;9.82;6.22;;;;;;;;;;5074300;28;20385;-77
2021/04/24 04:54:45;;;;;;;13.10;6.55;;;;;;;;;;5074072;28;20037;-77
2021/04/24 04:57:11;;;;;;;13.30;6.97;;;;;;;;;;5074054;28;20024;-78
2021/04/24 04:59:37;;;;;;;13.60;7.18;;;;;;;;;;5074162;28;20357;-78
2021/04/24 05:02:03;;;;;;;11.80;6.93;;;;;;;;;;5073994;28;20464;-77
2021/04/24 05:04:29;;;;;;;11.50;6.80;;;;;;;;;;5073812;28;20027;-76
2021/04/24 05:06:56;;;;;;;13.52;7.90;;;;;;;;;;5073948;28;20051;-81
2021/04/24 05:09:22;;;;;;;11.73;7.22;;;;;;;;;;5074123;28;20051;-79
2021/04/24 05:11:49;;;;;;;13.15;6.55;;;;;;;;;;5073748;28;20021;-79
2021/04/24 05:14:16;;;;;;;14.65;7.50;;;;;;;;;;5073792;28;20032;-79
2021/04/24 05:16:42;;;;;;;10.73;6.45;;;;;;;;;;5073899;28;20048;-80
2021/04/24 05:19:08;;;;;;;13.82;6.95;;;;;;;;;;5073599;28;20071;-77
2021/04/24 05:21:34;;;;;;;12.82;7.40;;;;;;;;;;5073723;28;20025;-78
2021/04/24 05:24:01;;;;;;;15.95;8.05;;;;;;;;;;5073508;28;20056;-79
2021/04/24 05:26:27;;;;;;;12.50;7.47;;;;;;;;;;5072033;28;20036;-78
2021/04/24 05:28:53;;;;;;;11.77;7.53;;;;;;;;;;5073292;28;20437;-78
2021/04/24 05:31:19;;;;;;;13.93;7.70;;;;;;;;;;5072659;28;20099;-79
2021/04/24 05:33:45;;;;;;;15.90;7.57;;;;;;;;;;5054509;28;20140;-84
2021/04/24 05:36:14;;;;;;;13.30;6.82;;;;;;;;;;5073088;28;20028;-79
2021/04/24 05:38:40;;;;;;;12.10;8.55;;;;;;;;;;5072465;28;20033;-77
2021/04/24 05:41:09;;;;;;;12.30;6.78;;;;;;;;;;5072688;28;20031;-77
2021/04/24 05:43:35;;;;;;;14.98;6.85;;;;;;;;;;5071710;28;20031;-78
2021/04/24 05:46:01;;;;;;;12.20;6.45;;;;;;;;;;5072280;28;20033;-79
2021/04/24 05:48:27;;;;;;;15.77;8.38;;;;;;;;;;5072734;28;20035;-78
2021/04/24 05:50:54;;;;;;;14.13;7.57;;;;;;;;;;5071991;28;20048;-80
2021/04/24 05:53:20;;;;;;;12.23;6.43;;;;;;;;;;5054639;28;20036;-78
2021/04/24 05:55:46;;;;;;;12.52;7.35;;;;;;;;;;5072569;28;20028;-78
2021/04/24 05:58:12;;;;;;;14.27;8.43;;;;;;;;;;5072937;28;20025;-77
2021/04/24 06:00:38;;;;;;;12.23;7.40;;;;;;;;;;5072245;28;20024;-79
2021/04/24 06:03:05;;;;;;;13.13;7.20;;;;;;;;;;5072607;28;20028;-77
2021/04/24 06:05:31;;;;;;;13.43;7.88;;;;;;;;;;5072396;28;20115;-78
2021/04/24 06:07:57;;;;;;;17.58;10.20;;;;;;;;;;5072346;28;20107;-77
2021/04/24 06:10:23;;;;;;;14.07;8.32;;;;;;;;;;5072630;28;20079;-76
2021/04/24 06:12:49;;;;;;;18.30;8.85;;;;;;;;;;5072019;28;20029;-78
2021/04/24 06:15:16;;;;;;;15.15;8.32;;;;;;;;;;5072080;28;20108;-80
2021/04/24 06:17:42;;;;;;;14.23;8.52;;;;;;;;;;5071737;28;20021;-78
2021/04/24 06:20:09;;;;;;;13.23;7.03;;;;;;;;;;5072207;28;20029;-79
2021/04/24 06:22:36;;;;;;;14.07;7.75;;;;;;;;;;5071860;28;20029;-78
2021/04/24 06:25:03;;;;;;;14.68;8.57;;;;;;;;;;5072099;28;20108;-78
2021/04/24 06:27:29;;;;;;;14.82;9.02;;;;;;;;;;5072326;28;20031;-77
2021/04/24 06:29:56;;;;;;;15.90;8.70;;;;;;;;;;5071659;28;20123;-78
2021/04/24 06:32:22;;;;;;;12.98;7.20;;;;;;;;;;5072069;28;20417;-76
2021/04/24 06:34:48;;;;;;;15.63;7.60;;;;;;;;;;5071804;28;20115;-76
2021/04/24 06:37:14;;;;;;;12.57;7.15;;;;;;;;;;5071773;28;20043;-76
2021/04/24 06:39:40;;;;;;;14.73;7.95;;;;;;;;;;5071822;28;20099;-79
2021/04/24 06:42:06;;;;;;;14.25;7.63;;;;;;;;;;5071824;28;20036;-76
2021/04/24 06:44:32;;;;;;;13.82;8.73;;;;;;;;;;5071854;28;20048;-76
2021/04/24 06:46:58;;;;;;;16.13;8.10;;;;;;;;;;5071479;28;20040;-76
2021/04/24 06:49:25;;;;;;;14.30;8.07;;;;;;;;;;5071986;28;20031;-75
2021/04/24 06:51:51;;;;;;;14.60;9.10;;;;;;;;;;5071606;28;20031;-76
2021/04/24 06:54:17;;;;;;;15.43;8.02;;;;;;;;;;5071824;28;20419;-75
2021/04/24 06:56:44;;;;;;;12.95;7.70;;;;;;;;;;5071574;28;20036;-77
2021/04/24 06:59:10;;;;;;;11.98;8.20;;;;;;;;;;5071623;28;20025;-76
2021/04/24 07:01:36;;;;;;;17.33;8.70;;;;;;;;;;5072273;28;20025;-78
2021/04/24 07:04:03;;;;;;;13.35;8.80;;;;;;;;;;5075069;28;20039;-76
2021/04/24 07:06:29;;;;;;;13.40;8.68;;;;;;;;;;5075428;28;20024;-77
2021/04/24 07:08:55;;;;;;;13.75;8.90;;;;;;;;;;5075156;28;20020;-78
2021/04/24 07:11:21;;;;;;;13.95;9.02;;;;;;;;;;5075172;28;20025;-77
2021/04/24 07:13:48;;;;;;;13.57;9.05;;;;;;;;;;5075162;28;20044;-77
2021/04/24 07:16:14;;;;;;;17.65;8.82;;;;;;;;;;5074754;28;20101;-77
2021/04/24 07:18:40;;;;;;;14.48;7.90;;;;;;;;;;5074961;28;20028;-77
2021/04/24 07:21:07;;;;;;;15.27;8.38;;;;;;;;;;5074873;28;20027;-76
2021/04/24 07:23:36;;;;;;;14.52;9.30;;;;;;;;;;5075027;28;20578;-77
2021/04/24 07:26:02;;;;;;;17.23;8.77;;;;;;;;;;5074644;28;20516;-76
2021/04/24 07:28:28;;;;;;;14.90;8.88;;;;;;;;;;5075096;28;20426;-75
2021/04/24 07:30:55;;;;;;;18.17;10.77;;;;;;;;;;5074216;28;20040;-76
2021/04/24 07:33:23;;;;;;;13.90;8.35;;;;;;;;;;5074512;28;20119;-76
2021/04/24 07:35:49;;;;;;;14.65;8.63;;;;;;;;;;5074774;28;20380;-76
2021/04/24 07:38:15;;;;;;;14.95;8.98;;;;;;;;;;5074328;28;20037;-75
2021/04/24 07:40:42;;;;;;;14.77;8.60;;;;;;;;;;5074751;28;20021;-76
2021/04/24 07:43:08;;;;;;;18.45;10.63;;;;;;;;;;5074555;28;20027;-75
2021/04/24 07:45:35;;;;;;;15.20;8.93;;;;;;;;;;5074255;28;20032;-76
2021/04/24 07:48:01;;;;;;;11.82;7.80;;;;;;;;;;5074180;28;20035;-76
2021/04/24 07:50:27;;;;;;;16.02;8.07;;;;;;;;;;5074565;28;20051;-75
2021/04/24 07:52:53;;;;;;;15.07;7.00;;;;;;;;;;5074204;28;20024;-75
2021/04/24 07:55:19;;;;;;;10.88;7.43;;;;;;;;;;5056124;28;20067;-77
2021/04/24 07:57:45;;;;;;;9.82;6.53;;;;;;;;;;5074381;28;20036;-77
2021/04/24 08:00:12;;;;;;;12.65;7.00;;;;;;;;;;5074061;28;20028;-78
2021/04/24 08:02:38;;;;;;;14.15;7.68;;;;;;;;;;5074035;28;20028;-75
2021/04/24 08:05:04;;;;;;;11.27;7.93;;;;;;;;;;5074069;28;20027;-74
2021/04/24 08:07:31;;;;;;;12.55;8.35;;;;;;;;;;5074073;28;20032;-77
2021/04/24 08:09:57;;;;;;;13.77;7.80;;;;;;;;;;5074199;28;20033;-75
2021/04/24 08:12:23;;;;;;;14.85;7.93;;;;;;;;;;5073915;28;20392;-76
2021/04/24 08:14:49;;;;;;;14.45;8.68;;;;;;;;;;5073015;28;20044;-75
2021/04/24 08:17:16;;;;;;;12.95;7.88;;;;;;;;;;5073668;28;20058;-76
2021/04/24 08:19:42;;;;;;;15.85;8.32;;;;;;;;;;5073971;28;20387;-77
2021/04/24 08:22:08;;;;;;;14.02;8.55;;;;;;;;;;5073860;28;20352;-78
2021/04/24 08:24:34;;;;;;;13.57;8.43;;;;;;;;;;5073932;28;20082;-75
2021/04/24 08:27:01;;;;;;;15.70;9.43;;;;;;;;;;5073860;28;20499;-76
2021/04/24 08:29:27;;;;;;;14.32;9.50;;;;;;;;;;5073216;28;20034;-76
2021/04/24 08:31:53;;;;;;;18.02;8.07;;;;;;;;;;5073768;28;20044;-76
2021/04/24 08:34:25;;;;;;;15.07;9.38;;;;;;;;;;5074375;28;20086;-75
2021/04/24 08:36:51;;;;;;;12.68;6.93;;;;;;;;;;5074310;28;20028;-76
2021/04/24 08:39:17;;;;;;;15.10;9.50;;;;;;;;;;5074158;28;20028;-77
2021/04/24 08:41:44;;;;;;;14.85;8.55;;;;;;;;;;5074093;28;20387;-75
2021/04/24 08:44:13;;;;;;;16.20;9.38;;;;;;;;;;5074192;28;20028;-76
2021/04/24 08:46:39;;;;;;;17.92;9.60;;;;;;;;;;5068630;28;20024;-75
2021/04/24 08:49:06;;;;;;;19.10;8.48;;;;;;;;;;5053090;28;20025;-75
2021/04/24 08:51:32;;;;;;;21.05;12.00;;;;;;;;;;5052939;28;20057;-75
2021/04/24 08:53:59;;;;;;;15.57;8.13;;;;;;;;;;5052985;28;20052;-76
2021/04/24 08:56:26;;;;;;;11.57;7.30;;;;;;;;;;5052907;28;20063;-78
2021/04/24 08:58:52;;;;;;;12.77;6.70;;;;;;;;;;5053399;28;20082;-82
2021/04/24 09:01:19;;;;;;;14.15;7.97;;;;;;;;;;5053036;28;20025;-76
2021/04/24 09:03:45;;;;;;;10.73;6.57;;;;;;;;;;5052863;28;20021;-77
2021/04/24 09:06:11;;;;;;;13.43;8.00;;;;;;;;;;5053343;28;20028;-76
2021/04/24 09:08:37;;;;;;;11.23;6.93;;;;;;;;;;5052749;28;20548;-77
2021/04/24 09:11:04;;;;;;;10.95;6.70;;;;;;;;;;5053244;28;20025;-75
2021/04/24 09:13:31;;;;;;;13.20;7.55;;;;;;;;;;5061677;28;20043;-75
2021/04/24 09:15:57;;;;;;;12.90;7.75;;;;;;;;;;5072740;28;20056;-78
2021/04/24 09:18:25;;;;;;;13.57;6.50;;;;;;;;;;5072656;28;20055;-75
2021/04/24 09:21:03;;;;;;;12.45;7.70;;;;;;;;;;5072825;28;20036;-75
2021/04/24 09:23:30;;;;;;;12.70;7.55;;;;;;;;;;5072112;28;20040;-75
2021/04/24 09:26:00;;;;;;;13.75;7.65;;;;;;;;;;5072669;28;20066;-77
2021/04/24 09:28:37;;;;;;;15.13;8.32;;;;;;;;;;5072532;28;20427;-77
2021/04/24 09:31:09;;;;;;;14.55;8.25;;;;;;;;;;5072505;28;20055;-76
2021/04/24 09:33:36;;;;;;;13.27;6.75;;;;;;;;;;5071993;28;20021;-75
2021/04/24 09:36:03;;;;;;;14.45;9.23;;;;;;;;;;5072576;28;20036;-75
2021/04/24 09:38:30;;;;;;;11.57;7.30;;;;;;;;;;5072190;28;20020;-75
2021/04/24 09:41:06;;;;;;;15.35;8.95;;;;;;;;;;5072665;28;20480;-75
2021/04/24 09:43:56;;;;;;;15.23;7.28;;;;;;;;;;5072333;28;20020;-75
2021/04/24 09:46:41;;;;;;;9.38;5.38;;;;;;;;;;5072289;28;20085;-75
2021/04/24 09:49:08;;;;;;;13.43;7.70;;;;;;;;;;5072331;28;20125;-75
2021/04/24 09:51:39;;;;;;;14.68;9.80;;;;;;;;;;5072345;28;20111;-75
2021/04/24 09:54:05;;;;;;;13.63;7.15;;;;;;;;;;5072142;28;20040;-76
2021/04/24 09:56:31;;;;;;;11.90;7.35;;;;;;;;;;5072414;28;20021;-75
2021/04/24 09:59:05;;;;;;;13.32;7.80;;;;;;;;;;5072313;28;20033;-75
2021/04/24 10:01:32;;;;;;;12.45;8.93;;;;;;;;;;5072194;28;20070;-75
2021/04/24 10:03:59;;;;;;;12.85;7.35;;;;;;;;;;5071891;28;20032;-75
2021/04/24 10:06:26;;;;;;;12.90;7.90;;;;;;;;;;5072340;28;20021;-75
2021/04/24 10:09:08;;;;;;;12.55;8.25;;;;;;;;;;5072086;28;20502;-76
2021/04/24 10:11:34;;;;;;;13.90;6.13;;;;;;;;;;5072193;28;20024;-77
2021/04/24 10:14:01;;;;;;;11.45;6.82;;;;;;;;;;5072190;28;20039;-76
2021/04/24 10:16:45;;;;;;;15.50;8.07;;;;;;;;;;5058826;28;20029;-78
2021/04/24 10:19:13;;;;;;;14.05;7.90;;;;;;;;;;5052086;28;20104;-77
2021/04/24 10:21:39;;;;;;;12.60;7.30;;;;;;;;;;5052220;28;20029;-75
2021/04/24 10:24:06;;;;;;;12.68;6.85;;;;;;;;;;5051875;28;20029;-75
2021/04/24 10:26:33;;;;;;;18.52;10.52;;;;;;;;;;5056448;28;20387;-75
2021/04/24 10:29:00;;;;;;;10.52;5.03;;;;;;;;;;5072087;28;20502;-76
2021/04/24 10:31:27;;;;;;;8.88;5.40;;;;;;;;;;5071712;28;20492;-76
2021/04/24 10:33:55;;;;;;;14.60;6.32;;;;;;;;;;5071235;28;20110;-76
2021/04/24 10:36:21;;;;;;;13.45;8.45;;;;;;;;;;5072024;28;20159;-80
2021/04/24 10:38:48;;;;;;;14.38;8.48;;;;;;;;;;5075467;28;20028;-75
2021/04/24 10:41:14;;;;;;;11.32;5.70;;;;;;;;;;5075951;28;20025;-75
2021/04/24 10:43:41;;;;;;;10.98;7.40;;;;;;;;;;5075659;28;20036;-75
2021/04/24 10:46:25;;;;;;;13.77;9.48;;;;;;;;;;5075542;28;20117;-75
2021/04/24 10:49:11;;;;;;;10.20;4.60;;;;;;;;;;5057107;28;20032;-75
2021/04/24 10:51:56;;;;;;;9.65;6.00;;;;;;;;;;5075585;28;20032;-74
2021/04/24 10:54:23;;;;;;;14.13;7.93;;;;;;;;;;5075320;28;20036;-74
2021/04/24 10:56:49;;;;;;;8.50;4.75;;;;;;;;;;5075577;28;20078;-75
2021/04/24 10:59:25;;;;;;;8.45;5.00;;;;;;;;;;5075370;28;20028;-75
2021/04/24 11:02:08;;;;;;;7.70;4.97;;;;;;;;;;5057229;28;20028;-75
2021/04/24 11:04:40;;;;;;;6.47;4.13;;;;;;;;;;5057392;28;20459;-75
2021/04/24 11:07:20;;;;;;;11.68;7.53;;;;;;;;;;5074991;28;20032;-75
2021/04/24 11:10:06;;;;;;;9.95;6.22;;;;;;;;;;5075074;28;20036;-75
2021/04/24 11:12:32;;;;;;;12.63;6.72;;;;;;;;;;5074812;28;20021;-76
2021/04/24 11:15:01;;;;;;;11.07;5.82;;;;;;;;;;5055225;28;20090;-76
2021/04/24 11:17:31;;;;;;;8.48;4.32;;;;;;;;;;5054658;28;20044;-74
2021/04/24 11:19:57;;;;;;;10.43;6.30;;;;;;;;;;5054929;28;20029;-75
2021/04/24 11:22:36;;;;;;;8.48;4.85;;;;;;;;;;5054574;28;20063;-75
2021/04/24 11:25:18;;;;;;;13.90;8.38;;;;;;;;;;5054907;28;20048;-76
2021/04/24 11:28:03;;;;;;;11.32;6.00;;;;;;;;;;5055067;28;20056;-75
2021/04/24 11:30:47;;;;;;;11.05;5.47;;;;;;;;;;5057780;28;20048;-75
2021/04/24 11:33:32;;;;;;;7.80;4.40;;;;;;;;;;5074374;28;20448;-76
2021/04/24 11:39:01;;;;;;;9.95;4.30;;;;;;;;;;5074717;28;20464;-75
2021/04/24 11:41:30;;;;;;;11.98;5.82;;;;;;;;;;5074643;28;20044;-77
2021/04/24 11:43:57;;;;;;;5.00;4.13;;;;;;;;;;5074522;28;20032;-75
2021/04/24 11:46:42;;;;;;;7.05;4.30;;;;;;;;;;5074456;28;20031;-75
2021/04/24 11:49:27;;;;;;;7.22;5.20;;;;;;;;;;5073036;28;20097;-75
2021/04/24 11:51:53;;;;;;;;;;;;;;;;;;5074783;28;20081;-75
2021/04/24 11:54:38;;;;;;;10.18;5.00;;;;;;;;;;5073958;28;20014;-76
2021/04/24 11:57:17;;;;;;;7.53;4.45;;;;;;;;;;5074398;28;20032;-75
2021/04/24 11:59:44;;;;;;;13.88;6.90;;;;;;;;;;5074102;28;20072;-76
2021/04/24 12:02:19;;;;;;;9.13;4.75;;;;;;;;;;5073957;28;20028;-75
2021/04/24 12:04:46;;;;;;;8.18;4.43;;;;;;;;;;5074437;28;20376;-75
2021/04/24 12:07:14;;;;;;;9.77;5.15;;;;;;;;;;5073927;28;20028;-76
2021/04/24 12:09:59;;;;;;;8.93;4.88;;;;;;;;;;5074144;28;20418;-75
2021/04/24 12:12:39;;;;;;;7.25;4.05;;;;;;;;;;5053870;28;20056;-76
2021/04/24 12:15:07;;;;;;;6.53;4.60;;;;;;;;;;5053673;28;20037;-75
2021/04/24 12:17:34;;;;;;;10.27;4.90;;;;;;;;;;5053907;28;20029;-76
2021/04/24 12:20:00;;;;;;;8.77;4.60;;;;;;;;;;5054114;28;20048;-75
2021/04/24 12:22:26;;;;;;;25.90;17.42;;;;;;;;;;5053639;28;20100;-77
2021/04/24 12:24:55;;;;;;;9.52;5.50;;;;;;;;;;5053746;28;20074;-78
2021/04/24 12:27:33;;;;;;;12.65;6.80;;;;;;;;;;5053475;28;20035;-77
2021/04/24 12:30:00;;;;;;;9.60;5.60;;;;;;;;;;5053510;28;20455;-76
2021/04/24 12:32:27;;;;;;;7.78;4.45;;;;;;;;;;5053347;28;20028;-76
2021/04/24 12:34:53;;;;;;;8.23;3.67;;;;;;;;;;5053633;28;20460;-75
2021/04/24 12:37:21;;;;;;;9.32;4.55;;;;;;;;;;5053195;28;20392;-75
2021/04/24 12:40:00;;;;;;;11.73;7.57;;;;;;;;;;5053539;28;20056;-75
2021/04/24 12:42:26;;;;;;;9.77;6.70;;;;;;;;;;5053213;28;20028;-75
2021/04/24 12:44:52;;;;;;;9.02;4.43;;;;;;;;;;5053353;28;20388;-75
2021/04/24 12:47:19;;;;;;;7.50;3.97;;;;;;;;;;5053053;28;20024;-75
2021/04/24 12:49:45;;;;;;;7.72;4.82;;;;;;;;;;5053207;28;20392;-75
2021/04/24 12:52:11;;;;;;;7.07;4.43;;;;;;;;;;5052998;28;20037;-75
2021/04/24 12:54:37;;;;;;;8.57;4.57;;;;;;;;;;5052941;28;20064;-76
2021/04/24 12:57:14;;;;;;;18.38;12.73;;;;;;;;;;5054220;28;20036;-75
2021/04/24 12:59:41;;;;;;;12.30;7.32;;;;;;;;;;5053797;28;20044;-75
2021/04/24 13:02:07;;;;;;;13.38;7.07;;;;;;;;;;5054093;28;20028;-77
2021/04/24 13:04:33;;;;;;;7.25;5.10;;;;;;;;;;5054009;28;20028;-76
2021/04/24 13:07:01;;;;;;;12.55;6.35;;;;;;;;;;5054222;28;20060;-74
2021/04/24 13:09:34;;;;;;;8.00;4.80;;;;;;;;;;5053753;28;20049;-75
2021/04/24 13:12:07;;;;;;;8.00;4.38;;;;;;;;;;5053942;28;20033;-74
2021/04/24 13:14:40;;;;;;;6.85;4.30;;;;;;;;;;5053825;28;20033;-76
2021/04/24 13:17:10;;;;;;;4.35;3.10;;;;;;;;;;5053806;28;20096;-76
2021/04/24 13:19:55;;;;;;;9.50;3.55;;;;;;;;;;5052881;28;20464;-77
2021/04/24 13:22:31;;;;;;;7.55;4.43;;;;;;;;;;5054027;28;20539;-77
2021/04/24 13:24:57;;;;;;;12.27;6.97;;;;;;;;;;5053858;28;20108;-77
2021/04/24 13:27:25;;;;;;;8.43;5.40;;;;;;;;;;5053421;28;20032;-77
2021/04/24 13:29:51;;;;;;;8.23;4.43;;;;;;;;;;5053524;28;20029;-77
2021/04/24 13:32:17;;;;;;;7.45;4.18;;;;;;;;;;5053423;28;20040;-77
2021/04/24 13:34:44;;;;;;;6.25;3.88;;;;;;;;;;5053542;28;20099;-77
2021/04/24 13:37:11;;;;;;;9.57;4.18;;;;;;;;;;5053530;28;20460;-78
2021/04/24 13:39:45;;;;;;;7.00;4.18;;;;;;;;;;5053512;28;20032;-78
2021/04/24 13:42:12;;;;;;;6.75;4.03;;;;;;;;;;5053287;28;20021;-78
2021/04/24 13:44:39;;;;;;;7.20;3.55;;;;;;;;;;5053402;28;20032;-77
2021/04/24 13:47:05;;;;;;;6.70;3.42;;;;;;;;;;5053268;28;20465;-78
2021/04/24 13:49:33;;;;;;;7.07;3.67;;;;;;;;;;5053384;28;20081;-77
2021/04/24 13:51:59;;;;;;;7.30;4.03;;;;;;;;;;5053522;28;20102;-77
2021/04/24 13:54:25;;;;;;;8.60;4.00;;;;;;;;;;5053095;28;20036;-77
2021/04/24 13:56:53;;;;;;;7.30;3.92;;;;;;;;;;5053051;28;20086;-77
2021/04/24 13:59:19;;;;;;;8.93;5.38;;;;;;;;;;5053182;28;20025;-77
2021/04/24 14:01:46;;;;;;;7.80;5.78;;;;;;;;;;5053210;28;20087;-77
2021/04/24 14:04:13;;;;;;;10.73;5.95;;;;;;;;;;5053227;28;20033;-77
2021/04/24 14:06:39;;;;;;;6.95;4.38;;;;;;;;;;5053183;28;20469;-77
2021/04/24 14:09:06;;;;;;;7.18;3.28;;;;;;;;;;5053062;28;20523;-77
2021/04/24 14:11:35;;;;;;;6.75;3.92;;;;;;;;;;5053652;28;20032;-76
2021/04/24 14:14:03;;;;;;;11.32;7.60;;;;;;;;;;5056904;28;20033;-76
2021/04/24 14:16:29;;;;;;;14.82;8.38;;;;;;;;;;5076537;28;20105;-76
2021/04/24 14:18:55;;;;;;;17.80;11.65;;;;;;;;;;5077192;28;20047;-77
2021/04/24 14:21:25;;;;;;;11.48;8.10;;;;;;;;;;5077005;28;20028;-77
2021/04/24 14:23:57;;;;;;;8.00;4.00;;;;;;;;;;5064217;28;20060;-78
2021/04/24 14:26:23;;;;;;;17.58;11.15;;;;;;;;;;5076225;28;20039;-77
2021/04/24 14:28:49;;;;;;;13.43;9.20;;;;;;;;;;5077355;28;20024;-76
2021/04/24 14:31:15;;;;;;;9.25;5.88;;;;;;;;;;5075472;28;20512;-77
2021/04/24 14:33:43;;;;;;;17.38;8.30;;;;;;;;;;5076644;28;20037;-78
2021/04/24 14:36:09;;;;;;;6.93;4.00;;;;;;;;;;5076874;28;20586;-77
2021/04/24 14:38:36;;;;;;;5.28;2.88;;;;;;;;;;5059799;28;20029;-77